Time;durP1;ratioP1;P1;durP2;ratioP2;P2;SDS_P1;SDS_P2;PMS_P1;PMS_P2;Temp;Humidity;BMP_temperature;BMP_pressure;BME280_temperature;BME280_humidity;BME280_pressure;Samples;Min_cycle;Max_cycle;Signal;HPM_P1;HPM_P2
2024/03/01 00:01:54;;;;;;;;;;;;;;;;;;5009476;28;19924;-64
2024/03/01 00:04:20;;;;;;;;;;;;;;;;;;5025680;28;20543;-64
2024/03/01 00:06:46;;;;;;;;;;;;;;;;;;5026887;28;19921;-64
2024/03/01 00:09:12;;;;;;;;;;;;;;;;;;5030539;28;19921;-64
2024/03/01 00:11:38;;;;;;;;;;;;;;;;;;5026761;28;19956;-64
2024/03/01 00:14:04;;;;;;;;;;;;;;;;;;5029283;28;19979;-64
2024/03/01 00:16:30;;;;;;;;;;;;;;;;;;5022077;28;19929;-64
2024/03/01 00:18:56;;;;;;;;;;;;;;;;;;5028863;28;19928;-64
2024/03/01 00:21:22;;;;;;;;;;;;;;;;;;5029469;28;19999;-64
2024/03/01 00:23:48;;;;;;;;;;;;;;;;;;5026381;28;19921;-62
2024/03/01 00:26:14;;;;;;;;;;;;;;;;;;5025584;28;20383;-62
2024/03/01 00:28:39;;;;;;;;;;;;;;;;;;5029241;28;19925;-63
2024/03/01 00:31:05;;;;;;;;;;;;;;;;;;5021271;28;19929;-62
2024/03/01 00:33:31;;;;;;;;;;;;;;;;;;5026371;28;20283;-62
2024/03/01 00:35:57;;;;;;;;;;;;;;;;;;5029346;28;19927;-62
2024/03/01 00:38:23;;;;;;;;;;;;;;;;;;5029522;28;19936;-63
2024/03/01 00:40:49;;;;;;;;;;;;;;;;;;5032391;28;19925;-63
2024/03/01 00:43:15;;;;;;;;;;;;;;;;;;5030986;28;20027;-63
2024/03/01 00:45:41;;;;;;;;;;;;;;;;;;5029982;28;19927;-63
2024/03/01 00:48:07;;;;;;;;;;;;;;;;;;5030966;28;19931;-63
2024/03/01 00:50:33;;;;;;;;;;;;;;;;;;5032641;28;19971;-63
2024/03/01 00:52:59;;;;;;;;;;;;;;;;;;5031627;28;19975;-64
2024/03/01 00:55:25;;;;;;;;;;;;;;;;;;5032300;28;20011;-64
2024/03/01 00:57:50;;;;;;;;;;;;;;;;;;5025863;28;20386;-63
2024/03/01 01:00:16;;;;;;;;;;;;;;;;;;5032585;28;19929;-63
2024/03/01 01:02:42;;;;;;;;;;;;;;;;;;5030504;28;19925;-63
2024/03/01 01:05:08;;;;;;;;;;;;;;;;;;5032346;28;19967;-63
2024/03/01 01:07:34;;;;;;;;;;;;;;;;;;5031926;28;19932;-63
2024/03/01 01:10:00;;;;;;;;;;;;;;;;;;5031708;28;19927;-63
2024/03/01 01:12:26;;;;;;;;;;;;;;;;;;5028772;28;19926;-62
2024/03/01 01:14:52;;;;;;;;;;;;;;;;;;5030210;28;19921;-63
2024/03/01 01:17:18;;;;;;;;;;;;;;;;;;5030196;28;19979;-63
2024/03/01 01:19:44;;;;;;;;;;;;;;;;;;5031495;28;20591;-63
2024/03/01 01:22:10;;;;;;;;;;;;;;;;;;5021073;28;20299;-63
2024/03/01 01:24:36;;;;;;;;;;;;;;;;;;5012043;28;19921;-64
2024/03/01 01:27:02;;;;;;;;;;;;;;;;;;5027551;28;20290;-63
2024/03/01 01:29:28;;;;;;;;;;;;;;;;;;5027281;28;20003;-63
2024/03/01 01:31:54;;;;;;;;;;;;;;;;;;5025555;28;20347;-64
2024/03/01 01:34:20;;;;;;;;;;;;;;;;;;5031294;28;20386;-63
2024/03/01 01:36:46;;;;;;;;;;;;;;;;;;5031031;28;19921;-63
2024/03/01 01:39:12;;;;;;;;;;;;;;;;;;5031507;28;20338;-63
2024/03/01 01:41:38;;;;;;;;;;;;;;;;;;5031118;28;20409;-63
2024/03/01 01:44:04;;;;;;;;;;;;;;;;;;5029432;28;19925;-63
2024/03/01 01:46:30;;;;;;;;;;;;;;;;;;5032016;28;20012;-63
2024/03/01 01:48:56;;;;;;;;;;;;;;;;;;5030752;28;19928;-63
2024/03/01 01:51:22;;;;;;;;;;;;;;;;;;5031035;28;19925;-63
2024/03/01 01:53:48;;;;;;;;;;;;;;;;;;5026708;28;19928;-64
2024/03/01 01:56:14;;;;;;;;;;;;;;;;;;5029351;28;20306;-63
2024/03/01 01:58:40;;;;;;;;;;;;;;;;;;5030027;28;19931;-63
2024/03/01 02:01:07;;;;;;;;;;;;;;;;;;5031463;28;20726;-63
2024/03/01 02:03:33;;;;;;;;;;;;;;;;;;5031749;28;20478;-63
2024/03/01 02:06:01;;;;;;;;;;;;;;;;;;5030655;28;19932;-63
2024/03/01 02:08:26;;;;;;;;;;;;;;;;;;5031759;28;19944;-64
2024/03/01 02:10:52;;;;;;;;;;;;;;;;;;5029307;28;20306;-64
2024/03/01 02:13:18;;;;;;;;;;;;;;;;;;5027536;28;19932;-63
2024/03/01 02:15:45;;;;;;;;;;;;;;;;;;5031690;28;19925;-63
2024/03/01 02:18:11;;;;;;;;;;;;;;;;;;5028100;28;19950;-63
2024/03/01 02:20:37;;;;;;;;;;;;;;;;;;5029705;28;19929;-64
2024/03/01 02:23:03;;;;;;;;;;;;;;;;;;5029549;28;20019;-63
2024/03/01 02:25:29;;;;;;;;;;;;;;;;;;5025930;28;20739;-63
2024/03/01 02:27:55;;;;;;;;;;;;;;;;;;5030095;28;20062;-63
2024/03/01 02:30:21;;;;;;;;;;;;;;;;;;5031425;28;20278;-63
2024/03/01 02:32:47;;;;;;;;;;;;;;;;;;5028432;28;19929;-63
2024/03/01 02:35:12;;;;;;;;;;;;;;;;;;5027335;28;19929;-63
2024/03/01 02:37:38;;;;;;;;;;;;;;;;;;5031194;28;20034;-63
2024/03/01 02:40:04;;;;;;;;;;;;;;;;;;5027979;28;20023;-63
2024/03/01 02:42:30;;;;;;;;;;;;;;;;;;5026069;28;19921;-63
2024/03/01 02:44:56;;;;;;;;;;;;;;;;;;5030919;28;19932;-63
2024/03/01 02:47:22;;;;;;;;;;;;;;;;;;5029008;28;20670;-63
2024/03/01 02:49:48;;;;;;;;;;;;;;;;;;5028475;28;20002;-63
2024/03/01 02:52:15;;;;;;;;;;;;;;;;;;5027230;28;19972;-63
2024/03/01 02:54:41;;;;;;;;;;;;;;;;;;5027446;28;20350;-63
2024/03/01 02:57:07;;;;;;;;;;;;;;;;;;5025481;28;19921;-63
2024/03/01 02:59:33;;;;;;;;;;;;;;;;;;5029872;28;19925;-63
2024/03/01 03:01:59;;;;;;;;;;;;;;;;;;5026345;28;19925;-63
2024/03/01 03:04:25;;;;;;;;;;;;;;;;;;5028377;28;20329;-63
2024/03/01 03:06:51;;;;;;;;;;;;;;;;;;5029965;28;19956;-63
2024/03/01 03:09:17;;;;;;;;;;;;;;;;;;5029792;28;19925;-63
2024/03/01 03:11:44;;;;;;;;;;;;;;;;;;5025621;28;20055;-63
2024/03/01 03:14:10;;;;;;;;;;;;;;;;;;5024340;28;20470;-63
2024/03/01 03:16:36;;;;;;;;;;;;;;;;;;5027229;28;19925;-63
2024/03/01 03:19:02;;;;;;;;;;;;;;;;;;5029506;28;19932;-63
2024/03/01 03:21:28;;;;;;;;;;;;;;;;;;5030170;28;19921;-63
2024/03/01 03:23:54;;;;;;;;;;;;;;;;;;5029716;28;20406;-64
2024/03/01 03:26:20;;;;;;;;;;;;;;;;;;5052225;23;19932;-64
2024/03/01 03:28:46;;;;;;;;;;;;;;;;;;5046680;28;19924;-65
2024/03/01 03:31:12;;;;;;;;;;;;;;;;;;5049943;28;19996;-64
2024/03/01 03:33:38;;;;;;;;;;;;;;;;;;5050363;28;20330;-65
2024/03/01 03:36:04;;;;;;;;;;;;;;;;;;5032352;28;19999;-65
2024/03/01 03:38:30;;;;;;;;;;;;;;;;;;5050558;28;20007;-65
2024/03/01 03:40:57;;;;;;;;;;;;;;;;;;5050457;28;20313;-65
2024/03/01 03:43:23;;;;;;;;;;;;;;;;;;5047405;28;19921;-65
2024/03/01 03:45:49;;;;;;;;;;;;;;;;;;5049724;28;19927;-65
2024/03/01 03:48:15;;;;;;;;;;;;;;;;;;5049981;28;19925;-66
2024/03/01 03:50:41;;;;;;;;;;;;;;;;;;5049972;28;19921;-66
2024/03/01 03:53:06;;;;;;;;;;;;;;;;;;5049957;28;19974;-66
2024/03/01 03:55:32;;;;;;;;;;;;;;;;;;5050214;28;19982;-64
2024/03/01 03:57:58;;;;;;;;;;;;;;;;;;5047279;28;20369;-65
2024/03/01 04:00:24;;;;;;;;;;;;;;;;;;5049695;28;19925;-65
2024/03/01 04:02:50;;;;;;;;;;;;;;;;;;5049577;28;19966;-65
2024/03/01 04:05:16;;;;;;;;;;;;;;;;;;5049784;28;20038;-65
2024/03/01 04:07:42;;;;;;;;;;;;;;;;;;5048531;28;20015;-64
2024/03/01 04:10:10;;;;;;;;;;;;;;;;;;5049713;28;19920;-65
2024/03/01 04:12:36;;;;;;;;;;;;;;;;;;5048517;28;19921;-65
2024/03/01 04:15:04;;;;;;;;;;;;;;;;;;5047280;28;19927;-65
2024/03/01 04:17:30;;;;;;;;;;;;;;;;;;5049100;28;19928;-66
2024/03/01 04:19:56;;;;;;;;;;;;;;;;;;5048804;28;19925;-65
2024/03/01 04:22:22;;;;;;;;;;;;;;;;;;5049516;28;19932;-65
2024/03/01 04:24:48;;;;;;;;;;;;;;;;;;5049336;28;20262;-65
2024/03/01 04:27:14;;;;;;;;;;;;;;;;;;5048390;28;19924;-65
2024/03/01 04:29:40;;;;;;;;;;;;;;;;;;5045652;28;19921;-65
2024/03/01 04:32:09;;;;;;;;;;;;;;;;;;5049141;28;19932;-65
2024/03/01 04:34:34;;;;;;;;;;;;;;;;;;5049454;28;19950;-65
2024/03/01 04:37:00;;;;;;;;;;;;;;;;;;5049190;28;19921;-65
2024/03/01 04:39:26;;;;;;;;;;;;;;;;;;5047870;28;19925;-65
2024/03/01 04:41:52;;;;;;;;;;;;;;;;;;5049559;28;19925;-65
2024/03/01 04:44:18;;;;;;;;;;;;;;;;;;5028534;28;19936;-65
2024/03/01 04:46:45;;;;;;;;;;;;;;;;;;5047913;28;19924;-65
2024/03/01 04:49:11;;;;;;;;;;;;;;;;;;5049350;28;19924;-65
2024/03/01 04:51:37;;;;;;;;;;;;;;;;;;5047428;28;19936;-65
2024/03/01 04:54:03;;;;;;;;;;;;;;;;;;5047750;28;19925;-65
2024/03/01 04:56:29;;;;;;;;;;;;;;;;;;5047377;28;20366;-65
2024/03/01 04:58:55;;;;;;;;;;;;;;;;;;5048431;28;19933;-65
2024/03/01 05:01:22;;;;;;;;;;;;;;;;;;5043789;28;19921;-65
2024/03/01 05:03:49;;;;;;;;;;;;;;;;;;5048069;28;19971;-65
2024/03/01 05:06:15;;;;;;;;;;;;;;;;;;5046908;28;19921;-65
2024/03/01 05:08:41;;;;;;;;;;;;;;;;;;5048185;28;19924;-67
2024/03/01 05:11:07;;;;;;;;;;;;;;;;;;5048197;28;19927;-65
2024/03/01 05:13:33;;;;;;;;;;;;;;;;;;5047985;28;20298;-65
2024/03/01 05:15:59;;;;;;;;;;;;;;;;;;5045831;28;19921;-65
2024/03/01 05:18:25;;;;;;;;;;;;;;;;;;5048256;28;19929;-65
2024/03/01 05:20:53;;;;;;;;;;;;;;;;;;5048893;28;19972;-65
2024/03/01 05:23:21;;;;;;;;;;;;;;;;;;5047725;28;20239;-65
2024/03/01 05:25:47;;;;;;;;;;;;;;;;;;5050877;28;19970;-65
2024/03/01 05:28:13;;;;;;;;;;;;;;;;;;5050892;28;20379;-65
2024/03/01 05:30:39;;;;;;;;;;;;;;;;;;5049765;28;19921;-66
2024/03/01 05:33:07;;;;;;;;;;;;;;;;;;5051863;28;19928;-66
2024/03/01 05:35:32;;;;;;;;;;;;;;;;;;5052651;28;19991;-66
2024/03/01 05:37:58;;;;;;;;;;;;;;;;;;5049833;28;19960;-66
2024/03/01 05:40:24;;;;;;;;;;;;;;;;;;5051095;28;19940;-66
2024/03/01 05:42:50;;;;;;;;;;;;;;;;;;5052210;28;19921;-66
2024/03/01 05:45:16;;;;;;;;;;;;;;;;;;5049662;28;20445;-65
2024/03/01 05:47:45;;;;;;;;;;;;;;;;;;5052068;28;19925;-65
2024/03/01 05:50:14;;;;;;;;;;;;;;;;;;5049698;28;20374;-65
2024/03/01 05:52:40;;;;;;;;;;;;;;;;;;5047962;28;20000;-65
2024/03/01 05:55:08;;;;;;;;;;;;;;;;;;5051579;28;19924;-65
2024/03/01 05:57:34;;;;;;;;;;;;;;;;;;5051112;28;20493;-65
2024/03/01 06:00:00;;;;;;;;;;;;;;;;;;5051985;28;19982;-65
2024/03/01 06:02:26;;;;;;;;;;;;;;;;;;5049276;28;19920;-65
2024/03/01 06:04:52;;;;;;;;;;;;;;;;;;5050353;28;19944;-65
2024/03/01 06:07:18;;;;;;;;;;;;;;;;;;5051554;28;19995;-65
2024/03/01 06:09:44;;;;;;;;;;;;;;;;;;5051628;28;19929;-65
2024/03/01 06:12:10;;;;;;;;;;;;;;;;;;5050299;28;19921;-65
2024/03/01 06:14:36;;;;;;;;;;;;;;;;;;5048940;28;19921;-65
2024/03/01 06:17:02;;;;;;;;;;;;;;;;;;5047842;28;20582;-65
2024/03/01 06:19:28;;;;;;;;;;;;;;;;;;5048766;28;19924;-65
2024/03/01 06:21:55;;;;;;;;;;;;;;;;;;5044563;28;19921;-65
2024/03/01 06:24:21;;;;;;;;;;;;;;;;;;5041610;28;19921;-65
2024/03/01 06:26:47;;;;;;;;;;;;;;;;;;5045475;28;19932;-65
2024/03/01 06:29:13;;;;;;;;;;;;;;;;;;5041935;28;19929;-65
2024/03/01 06:31:39;;;;;;;;;;;;;;;;;;5044272;28;19932;-65
2024/03/01 06:34:05;;;;;;;;;;;;;;;;;;5042151;28;19928;-65
2024/03/01 06:36:31;;;;;;;;;;;;;;;;;;5043981;28;19985;-65
2024/03/01 06:38:57;;;;;;;;;;;;;;;;;;5045237;28;20570;-65
2024/03/01 06:41:23;;;;;;;;;;;;;;;;;;5045119;28;19925;-65
2024/03/01 06:43:49;;;;;;;;;;;;;;;;;;5043193;28;19967;-65
2024/03/01 06:46:15;;;;;;;;;;;;;;;;;;5045162;28;20349;-65
2024/03/01 06:48:40;;;;;;;;;;;;;;;;;;5041343;28;20570;-65
2024/03/01 06:51:06;;;;;;;;;;;;;;;;;;5045011;28;19931;-65
2024/03/01 06:53:32;;;;;;;;;;;;;;;;;;5042701;28;20386;-65
2024/03/01 06:55:58;;;;;;;;;;;;;;;;;;5044388;28;19920;-65
2024/03/01 06:58:24;;;;;;;;;;;;;;;;;;5043571;28;19924;-66
2024/03/01 07:00:52;;;;;;;;;;;;;;;;;;5042659;28;20429;-66
2024/03/01 07:03:18;;;;;;;;;;;;;;;;;;5049769;28;20093;-64
2024/03/01 07:05:44;;;;;;;;;;;;;;;;;;5048803;28;19952;-64
2024/03/01 07:08:09;;;;;;;;;;;;;;;;;;5048235;28;19982;-64
2024/03/01 07:10:35;;;;;;;;;;;;;;;;;;5049281;28;19929;-64
2024/03/01 07:13:01;;;;;;;;;;;;;;;;;;5049487;28;20298;-65
2024/03/01 07:15:29;;;;;;;;;;;;;;;;;;5049100;28;20306;-65
2024/03/01 07:17:55;;;;;;;;;;;;;;;;;;5063504;28;19933;-65
2024/03/01 07:20:21;;;;;;;;;;;;;;;;;;5048116;28;20224;-65
2024/03/01 07:22:48;;;;;;;;;;;;;;;;;;5049108;28;20461;-66
2024/03/01 07:25:14;;;;;;;;;;;;;;;;;;4985866;28;1803289;-65
2024/03/01 07:27:41;;;;;;;;;;;;;;;;;;5049582;28;20047;-65
2024/03/01 07:30:07;;;;;;;;;;;;;;;;;;5049917;28;20354;-65
2024/03/01 07:32:34;;;;;;;;;;;;;;;;;;5046072;28;19928;-65
2024/03/01 07:35:00;;;;;;;;;;;;;;;;;;5048639;28;19957;-65
2024/03/01 07:37:26;;;;;;;;;;;;;;;;;;5047827;28;20015;-65
2024/03/01 07:39:51;;;;;;;;;;;;;;;;;;5049408;28;20008;-65
2024/03/01 07:42:17;;;;;;;;;;;;;;;;;;5048775;28;19921;-65
2024/03/01 07:44:43;;;;;;;;;;;;;;;;;;5049793;28;19924;-65
2024/03/01 07:47:09;;;;;;;;;;;;;;;;;;5047731;28;20263;-65
2024/03/01 07:49:35;;;;;;;;;;;;;;;;;;5049920;28;19921;-65
2024/03/01 07:52:01;;;;;;;;;;;;;;;;;;5049509;28;19927;-65
2024/03/01 07:54:28;;;;;;;;;;;;;;;;;;5046998;28;19932;-65
2024/03/01 07:56:54;;;;;;;;;;;;;;;;;;5048005;28;20591;-65
2024/03/01 07:59:20;;;;;;;;;;;;;;;;;;5048961;28;19924;-65
2024/03/01 08:01:47;;;;;;;;;;;;;;;;;;5048030;28;19925;-65
2024/03/01 08:04:13;;;;;;;;;;;;;;;;;;5049552;28;19927;-64
2024/03/01 08:06:39;;;;;;;;;;;;;;;;;;5049699;28;20388;-65
2024/03/01 08:09:05;;;;;;;;;;;;;;;;;;5044493;28;20112;-65
2024/03/01 08:11:30;;;;;;;;;;;;;;;;;;5048740;28;19929;-65
2024/03/01 08:13:56;;;;;;;;;;;;;;;;;;5047669;28;19924;-65
2024/03/01 08:16:23;;;;;;;;;;;;;;;;;;5047873;28;19924;-65
2024/03/01 08:18:49;;;;;;;;;;;;;;;;;;5048908;28;20374;-64
2024/03/01 08:21:15;;;;;;;;;;;;;;;;;;5047738;28;19963;-64
2024/03/01 08:23:40;;;;;;;;;;;;;;;;;;5049409;28;19964;-64
2024/03/01 08:26:06;;;;;;;;;;;;;;;;;;5045950;28;20586;-64
2024/03/01 08:28:32;;;;;;;;;;;;;;;;;;5046345;28;19921;-64
2024/03/01 08:31:04;;;;;;;;;;;;;;;;;;5047606;28;19921;-64
2024/03/01 08:33:30;;;;;;;;;;;;;;;;;;5049356;28;19952;-64
2024/03/01 08:35:55;;;;;;;;;;;;;;;;;;5048946;28;20402;-64
2024/03/01 08:38:21;;;;;;;;;;;;;;;;;;5047147;28;19929;-64
2024/03/01 08:40:47;;;;;;;;;;;;;;;;;;5048037;28;19944;-64
2024/03/01 08:43:13;;;;;;;;;;;;;;;;;;5045319;28;20386;-64
2024/03/01 08:45:39;;;;;;;;;;;;;;;;;;5047574;28;19925;-64
2024/03/01 08:48:05;;;;;;;;;;;;;;;;;;5044579;28;19929;-64
2024/03/01 08:50:31;;;;;;;;;;;;;;;;;;5044337;28;19921;-65
2024/03/01 08:52:59;;;;;;;;;;;;;;;;;;5041542;28;19921;-66
2024/03/01 08:55:24;;;;;;;;;;;;;;;;;;5045950;28;20583;-65
2024/03/01 08:57:50;;;;;;;;;;;;;;;;;;5048811;28;19970;-65
2024/03/01 09:00:16;;;;;;;;;;;;;;;;;;5052012;28;19925;-68
2024/03/01 09:02:44;;;;;;;;;;;;;;;;;;5052971;28;19929;-65
2024/03/01 09:05:11;;;;;;;;;;;;;;;;;;5050395;28;19924;-65
2024/03/01 09:07:37;;;;;;;;;;;;;;;;;;5052907;28;19974;-65
2024/03/01 09:10:05;;;;;;;;;;;;;;;;;;5048658;28;19921;-65
2024/03/01 09:12:31;;;;;;;;;;;;;;;;;;5052337;28;20370;-65
2024/03/01 09:14:57;;;;;;;;;;;;;;;;;;5051459;28;19931;-65
2024/03/01 09:17:23;;;;;;;;;;;;;;;;;;5052327;28;19932;-65
2024/03/01 09:19:48;;;;;;;;;;;;;;;;;;5026120;28;19927;-65
2024/03/01 09:22:16;;;;;;;;;;;;;;;;;;5050706;28;20140;-66
2024/03/01 09:24:43;;;;;;;;;;;;;;;;;;5054040;28;19928;-65
2024/03/01 09:27:08;;;;;;;;;;;;;;;;;;5050383;28;20058;-65
2024/03/01 09:29:37;;;;;;;;;;;;;;;;;;5052143;28;20225;-65
2024/03/01 09:32:03;;;;;;;;;;;;;;;;;;5052861;28;19943;-64
2024/03/01 09:34:29;;;;;;;;;;;;;;;;;;5051939;28;20358;-64
2024/03/01 09:36:55;;;;;;;;;;;;;;;;;;5050414;28;20344;-64
2024/03/01 09:39:21;;;;;;;;;;;;;;;;;;5047220;28;19921;-64
2024/03/01 09:41:49;;;;;;;;;;;;;;;;;;5053596;28;20054;-65
2024/03/01 09:44:15;;;;;;;;;;;;;;;;;;5050975;28;19928;-65
2024/03/01 09:46:40;;;;;;;;;;;;;;;;;;5043670;28;20452;-65
2024/03/01 09:49:06;;;;;;;;;;;;;;;;;;5053384;28;19984;-65
2024/03/01 09:51:32;;;;;;;;;;;;;;;;;;5047450;28;20481;-65
2024/03/01 09:53:58;;;;;;;;;;;;;;;;;;5047484;28;19921;-63
2024/03/01 09:56:24;;;;;;;;;;;;;;;;;;5051838;28;19920;-63
2024/03/01 09:58:50;;;;;;;;;;;;;;;;;;5052323;28;19932;-64
2024/03/01 10:01:16;;;;;;;;;;;;;;;;;;5051604;28;19924;-65
2024/03/01 10:03:42;;;;;;;;;;;;;;;;;;5046272;28;19931;-65
2024/03/01 10:06:08;;;;;;;;;;;;;;;;;;5049286;28;19921;-65
2024/03/01 10:08:35;;;;;;;;;;;;;;;;;;5037327;28;19929;-65
2024/03/01 10:11:01;;;;;;;;;;;;;;;;;;5047916;28;19921;-66
2024/03/01 10:13:27;;;;;;;;;;;;;;;;;;5050259;28;19927;-66
2024/03/01 10:15:53;;;;;;;;;;;;;;;;;;5049891;28;20018;-66
2024/03/01 10:18:18;;;;;;;;;;;;;;;;;;5050276;28;20000;-66
2024/03/01 10:20:44;;;;;;;;;;;;;;;;;;5050452;28;19932;-66
2024/03/01 10:23:10;;;;;;;;;;;;;;;;;;5046094;28;20328;-66
2024/03/01 10:25:40;;;;;;;;;;;;;;;;;;5050669;28;19935;-66
2024/03/01 10:28:06;;;;;;;;;;;;;;;;;;5049813;28;20305;-66
2024/03/01 10:30:32;;;;;;;;;;;;;;;;;;5050552;28;19966;-66
2024/03/01 10:32:58;;;;;;;;;;;;;;;;;;5048856;28;19928;-66
2024/03/01 10:35:24;;;;;;;;;;;;;;;;;;5049320;28;19921;-66
2024/03/01 10:37:50;;;;;;;;;;;;;;;;;;5048548;28;20444;-66
2024/03/01 10:40:17;;;;;;;;;;;;;;;;;;5050893;28;19924;-66
2024/03/01 10:42:43;;;;;;;;;;;;;;;;;;5051371;28;19952;-66
2024/03/01 10:45:16;;;;;;;;;;;;;;;;;;5050801;28;20397;-66
2024/03/01 10:47:42;;;;;;;;;;;;;;;;;;5049702;28;19947;-66
2024/03/01 10:50:08;;;;;;;;;;;;;;;;;;5050589;28;20023;-66
2024/03/01 10:52:34;;;;;;;;;;;;;;;;;;5045785;28;19925;-66
2024/03/01 10:55:00;;;;;;;;;;;;;;;;;;5048967;28;19998;-65
2024/03/01 10:57:26;;;;;;;;;;;;;;;;;;5047969;28;20320;-66
2024/03/01 10:59:52;;;;;;;;;;;;;;;;;;5032756;28;19966;-66
2024/03/01 11:02:18;;;;;;;;;;;;;;;;;;5052479;28;19986;-66
2024/03/01 11:04:44;;;;;;;;;;;;;;;;;;5048586;28;20019;-66
2024/03/01 11:07:10;;;;;;;;;;;;;;;;;;5047545;28;19931;-66
2024/03/01 11:09:36;;;;;;;;;;;;;;;;;;5048728;28;19921;-66
2024/03/01 11:12:02;;;;;;;;;;;;;;;;;;5050753;28;19925;-66
2024/03/01 11:14:28;;;;;;;;;;;;;;;;;;5048909;28;20283;-65
2024/03/01 11:16:53;;;;;;;;;;;;;;;;;;5042527;28;19929;-66
2024/03/01 11:19:19;;;;;;;;;;;;;;;;;;5049755;28;20016;-66
2024/03/01 11:21:47;;;;;;;;;;;;;;;;;;5049590;28;19970;-66
2024/03/01 11:24:13;;;;;;;;;;;;;;;;;;5051437;28;19932;-66
2024/03/01 11:26:39;;;;;;;;;;;;;;;;;;5046552;28;19928;-66
2024/03/01 11:29:05;;;;;;;;;;;;;;;;;;5046306;28;19928;-66
2024/03/01 11:31:31;;;;;;;;;;;;;;;;;;5043422;28;19928;-66
2024/03/01 11:33:57;;;;;;;;;;;;;;;;;;5047871;28;20374;-66
2024/03/01 11:36:23;;;;;;;;;;;;;;;;;;5047955;28;19920;-66
2024/03/01 11:38:49;;;;;;;;;;;;;;;;;;5048042;28;19943;-66
2024/03/01 11:41:15;;;;;;;;;;;;;;;;;;5043647;28;20394;-65
2024/03/01 11:43:41;;;;;;;;;;;;;;;;;;5048175;28;19927;-66
2024/03/01 11:46:07;;;;;;;;;;;;;;;;;;5046816;28;19921;-66
2024/03/01 11:48:33;;;;;;;;;;;;;;;;;;5042412;28;19929;-66
2024/03/01 11:50:59;;;;;;;;;;;;;;;;;;5039848;28;19977;-66
2024/03/01 11:53:26;;;;;;;;;;;;;;;;;;5036562;28;19928;-66
2024/03/01 11:55:52;;;;;;;;;;;;;;;;;;5046180;28;19931;-66
2024/03/01 11:58:18;;;;;;;;;;;;;;;;;;5048906;28;19925;-66
2024/03/01 12:00:45;;;;;;;;;;;;;;;;;;5047118;28;22460;-66
2024/03/01 12:03:11;;;;;;;;;;;;;;;;;;5048947;28;19931;-66
2024/03/01 12:05:37;;;;;;;;;;;;;;;;;;5048690;28;20290;-66
2024/03/01 12:08:03;;;;;;;;;;;;;;;;;;5047005;28;19921;-66
2024/03/01 12:10:29;;;;;;;;;;;;;;;;;;5045194;28;19925;-66
2024/03/01 12:12:55;;;;;;;;;;;;;;;;;;5048520;28;19925;-66
2024/03/01 12:15:21;;;;;;;;;;;;;;;;;;5049305;28;19921;-64
2024/03/01 12:17:47;;;;;;;;;;;;;;;;;;5047675;28;20472;-65
2024/03/01 12:20:14;;;;;;;;;;;;;;;;;;5048138;28;19924;-65
2024/03/01 12:22:40;;;;;;;;;;;;;;;;;;5049768;28;20304;-65
2024/03/01 12:25:06;;;;;;;;;;;;;;;;;;5045238;28;19932;-66
2024/03/01 12:27:36;;;;;;;;;;;;;;;;;;5048033;28;19920;-66
2024/03/01 12:30:02;;;;;;;;;;;;;;;;;;5048865;28;19924;-66
2024/03/01 12:32:28;;;;;;;;;;;;;;;;;;5041381;28;19925;-66
2024/03/01 12:34:54;;;;;;;;;;;;;;;;;;5045085;28;19980;-65
2024/03/01 12:37:20;;;;;;;;;;;;;;;;;;5048404;28;20015;-66
2024/03/01 12:39:46;;;;;;;;;;;;;;;;;;5048579;28;19974;-66
2024/03/01 12:42:12;;;;;;;;;;;;;;;;;;5048932;28;20304;-66
2024/03/01 12:44:38;;;;;;;;;;;;;;;;;;5049109;28;19925;-66
2024/03/01 12:47:04;;;;;;;;;;;;;;;;;;5049200;28;20023;-66
2024/03/01 12:49:30;;;;;;;;;;;;;;;;;;5046186;28;19925;-66
2024/03/01 12:51:56;;;;;;;;;;;;;;;;;;5048790;28;19920;-66
2024/03/01 12:54:22;;;;;;;;;;;;;;;;;;5047971;28;20266;-66
2024/03/01 12:56:52;;;;;;;;;;;;;;;;;;5048787;28;19929;-66
2024/03/01 12:59:19;;;;;;;;;;;;;;;;;;5048635;28;19920;-66
2024/03/01 13:01:44;;;;;;;;;;;;;;;;;;5042399;28;20821;-66
2024/03/01 13:04:10;;;;;;;;;;;;;;;;;;5048420;28;20007;-65
2024/03/01 13:06:36;;;;;;;;;;;;;;;;;;5049032;28;20007;-66
2024/03/01 13:09:05;;;;;;;;;;;;;;;;;;5048539;28;19970;-66
2024/03/01 13:11:31;;;;;;;;;;;;;;;;;;5053494;22;19960;-62
2024/03/01 13:13:57;;;;;;;;;;;;;;;;;;5049822;28;20014;-62
2024/03/01 13:16:24;;;;;;;;;;;;;;;;;;5046621;28;19925;-62
2024/03/01 13:18:50;;;;;;;;;;;;;;;;;;5044473;28;19974;-62
2024/03/01 13:21:16;;;;;;;;;;;;;;;;;;5045342;28;20298;-62
2024/03/01 13:23:42;;;;;;;;;;;;;;;;;;5048781;28;19921;-62
2024/03/01 13:26:08;;;;;;;;;;;;;;;;;;5048117;28;20062;-63
2024/03/01 13:28:34;;;;;;;;;;;;;;;;;;5049281;28;19924;-63
2024/03/01 13:31:00;;;;;;;;;;;;;;;;;;5047940;28;19927;-63
2024/03/01 13:33:26;;;;;;;;;;;;;;;;;;5047409;28;20013;-63
2024/03/01 13:35:52;;;;;;;;;;;;;;;;;;5049250;28;20589;-63
2024/03/01 13:38:18;;;;;;;;;;;;;;;;;;5048057;28;19921;-63
2024/03/01 13:40:46;;;;;;;;;;;;;;;;;;5048187;28;19933;-62
2024/03/01 13:43:12;;;;;;;;;;;;;;;;;;5043208;28;19967;-62
2024/03/01 13:45:38;;;;;;;;;;;;;;;;;;5046897;28;19925;-63
2024/03/01 13:48:08;;;;;;;;;;;;;;;;;;5051341;28;20993;-63
2024/03/01 13:50:34;;;;;;;;;;;;;;;;;;5048870;28;19928;-63
2024/03/01 13:53:00;;;;;;;;;;;;;;;;;;5050767;28;19925;-63
2024/03/01 13:55:26;;;;;;;;;;;;;;;;;;5054190;28;19935;-63
2024/03/01 13:57:52;;;;;;;;;;;;;;;;;;5050092;28;19920;-63
2024/03/01 14:00:24;;;;;;;;;;;;;;;;;;5050521;28;19925;-62
2024/03/01 14:02:50;;;;;;;;;;;;;;;;;;5048222;28;20008;-61
2024/03/01 14:05:16;;;;;;;;;;;;;;;;;;5051808;28;20000;-63
2024/03/01 14:07:42;;;;;;;;;;;;;;;;;;5051128;28;20255;-63
2024/03/01 14:10:08;;;;;;;;;;;;;;;;;;5048384;28;19932;-62
2024/03/01 14:12:35;;;;;;;;;;;;;;;;;;5051959;28;19971;-62
2024/03/01 14:15:03;;;;;;;;;;;;;;;;;;5049299;28;19964;-62
2024/03/01 14:17:29;;;;;;;;;;;;;;;;;;5050331;28;19928;-62
2024/03/01 14:19:55;;;;;;;;;;;;;;;;;;5050873;28;19928;-63
2024/03/01 14:22:21;;;;;;;;;;;;;;;;;;5050775;28;19925;-63
2024/03/01 14:24:47;;;;;;;;;;;;;;;;;;5050580;28;19921;-63
2024/03/01 14:27:13;;;;;;;;;;;;;;;;;;5049130;28;19925;-63
2024/03/01 14:29:38;;;;;;;;;;;;;;;;;;5051560;28;19925;-63
2024/03/01 14:32:04;;;;;;;;;;;;;;;;;;5050368;28;19936;-63
2024/03/01 14:34:30;;;;;;;;;;;;;;;;;;5050127;28;19927;-63
2024/03/01 14:36:57;;;;;;;;;;;;;;;;;;5050423;28;19974;-63
2024/03/01 14:39:23;;;;;;;;;;;;;;;;;;5047702;28;19991;-63
2024/03/01 14:41:49;;;;;;;;;;;;;;;;;;5048670;28;20362;-63
2024/03/01 14:44:15;;;;;;;;;;;;;;;;;;5050747;28;19974;-63
2024/03/01 14:46:41;;;;;;;;;;;;;;;;;;5051206;28;19986;-62
2024/03/01 14:49:07;;;;;;;;;;;;;;;;;;5050760;28;19954;-64
2024/03/01 14:51:33;;;;;;;;;;;;;;;;;;5047477;28;19921;-62
2024/03/01 14:53:59;;;;;;;;;;;;;;;;;;5048959;28;20244;-63
2024/03/01 14:56:25;;;;;;;;;;;;;;;;;;5046552;28;20010;-63
2024/03/01 14:58:51;;;;;;;;;;;;;;;;;;5050671;28;20366;-63
2024/03/01 15:01:18;;;;;;;;;;;;;;;;;;5050714;28;19925;-63
2024/03/01 15:03:48;;;;;;;;;;;;;;;;;;5047621;28;19939;-63
2024/03/01 15:06:14;;;;;;;;;;;;;;;;;;5045294;28;20391;-63
2024/03/01 15:08:40;;;;;;;;;;;;;;;;;;5047162;28;19929;-63
2024/03/01 15:11:07;;;;;;;;;;;;;;;;;;5050115;28;19932;-63
2024/03/01 15:13:34;;;;;;;;;;;;;;;;;;5046145;28;20019;-63
2024/03/01 15:15:59;;;;;;;;;;;;;;;;;;5045933;28;19921;-63
2024/03/01 15:18:25;;;;;;;;;;;;;;;;;;5047576;28;20023;-63
2024/03/01 15:20:52;;;;;;;;;;;;;;;;;;5043276;28;19933;-63
2024/03/01 15:23:18;;;;;;;;;;;;;;;;;;5049119;28;19920;-63
2024/03/01 15:25:44;;;;;;;;;;;;;;;;;;5049931;28;19982;-63
2024/03/01 15:28:10;;;;;;;;;;;;;;;;;;5049354;28;19929;-63
2024/03/01 15:30:37;;;;;;;;;;;;;;;;;;5050716;28;19925;-63
2024/03/01 15:33:03;;;;;;;;;;;;;;;;;;5049669;28;19925;-63
2024/03/01 15:35:30;;;;;;;;;;;;;;;;;;5031409;28;19921;-63
2024/03/01 15:37:56;;;;;;;;;;;;;;;;;;5050557;28;19931;-63
2024/03/01 15:40:22;;;;;;;;;;;;;;;;;;5046729;28;19929;-63
2024/03/01 15:42:48;;;;;;;;;;;;;;;;;;5045045;28;20366;-63
2024/03/01 15:45:14;;;;;;;;;;;;;;;;;;5029850;28;19928;-63
2024/03/01 15:47:40;;;;;;;;;;;;;;;;;;5049363;28;19931;-63
2024/03/01 15:50:09;;;;;;;;;;;;;;;;;;5049974;28;20557;-63
2024/03/01 15:52:35;;;;;;;;;;;;;;;;;;5049911;28;19925;-63
2024/03/01 15:55:05;;;;;;;;;;;;;;;;;;5042678;28;19931;-63
2024/03/01 15:57:31;;;;;;;;;;;;;;;;;;5045664;28;19929;-63
2024/03/01 15:59:57;;;;;;;;;;;;;;;;;;5042962;28;19933;-63
2024/03/01 16:02:23;;;;;;;;;;;;;;;;;;5049595;28;19960;-63
2024/03/01 16:04:49;;;;;;;;;;;;;;;;;;5049335;28;20483;-63
2024/03/01 16:07:15;;;;;;;;;;;;;;;;;;5050137;28;20011;-63
2024/03/01 16:09:40;;;;;;;;;;;;;;;;;;5049337;28;20046;-64
2024/03/01 16:12:09;;;;;;;;;;;;;;;;;;5049450;28;20020;-63
2024/03/01 16:14:36;;;;;;;;;;;;;;;;;;5036437;28;20286;-63
2024/03/01 16:17:03;;;;;;;;;;;;;;;;;;5048281;28;20472;-63
2024/03/01 16:19:29;;;;;;;;;;;;;;;;;;5042169;28;19925;-63
2024/03/01 16:21:55;;;;;;;;;;;;;;;;;;5051018;28;20066;-64
2024/03/01 16:24:21;;;;;;;;;;;;;;;;;;5049512;28;20469;-61
2024/03/01 16:26:47;;;;;;;;;;;;;;;;;;5050677;28;20003;-63
2024/03/01 16:29:13;;;;;;;;;;;;;;;;;;5050257;28;19967;-63
2024/03/01 16:31:39;;;;;;;;;;;;;;;;;;5039735;28;19927;-63
2024/03/01 16:34:05;;;;;;;;;;;;;;;;;;5040610;28;19933;-63
2024/03/01 16:36:30;;;;;;;;;;;;;;;;;;5034943;28;19921;-64
2024/03/01 16:38:56;;;;;;;;;;;;;;;;;;5038754;28;19936;-64